Arkport, New York
Current Conditions -  °F | °C
As of 7:54 PM on Wednesday 26 Nov 2014 (Local Time) from KDSV Reporting Station
Light Snow Light Snow  
Wind Chill: 25°   Ceiling: 2100
Heat Index: 31°   Visibility: 9mi
Dew Point: 30°   Wind: 6mph
Humidity: 96%   Direction: 320°NW
Pressure: 30.03"   Gusts: NA
Location:  42.39°N, 77.7°W
Report Text: KDSV 270054Z AUTO 32005KT 9SM -SN FEW008 OVC021 M01/M01 A3003 RMK AO2 SLP184 P0000 T10061011
Loading
Personal Weather Stations






























Interactive Weather Map New forecast layout! Learn more

10-Day Weather Forecast

Advertisements
Track Severe Weather on mobile